sensor_id;sensor_type;location;lat;lon;timestamp;P1;durP1;ratioP1;P2;durP2;ratioP2
3667;SDS011;24099;47.102;15.440;2023-01-19T00:00:55;0.52;;;0.50;;
3667;SDS011;24099;47.102;15.440;2023-01-19T00:03:22;0.68;;;0.68;;
3667;SDS011;24099;47.102;15.440;2023-01-19T00:05:50;2.03;;;1.02;;
3667;SDS011;24099;47.102;15.440;2023-01-19T00:08:18;1.35;;;1.00;;
3667;SDS011;24099;47.102;15.440;2023-01-19T00:10:56;0.68;;;0.68;;
3667;SDS011;24099;47.102;15.440;2023-01-19T00:13:23;1.13;;;0.98;;
3667;SDS011;24099;47.102;15.440;2023-01-19T00:15:53;1.15;;;0.77;;
3667;SDS011;24099;47.102;15.440;2023-01-19T00:18:20;0.63;;;0.63;;
3667;SDS011;24099;47.102;15.440;2023-01-19T00:20:48;0.77;;;0.63;;
3667;SDS011;24099;47.102;15.440;2023-01-19T00:23:15;1.55;;;1.05;;
3667;SDS011;24099;47.102;15.440;2023-01-19T00:25:44;1.17;;;1.08;;
3667;SDS011;24099;47.102;15.440;2023-01-19T00:28:14;1.00;;;0.77;;
3667;SDS011;24099;47.102;15.440;2023-01-19T00:30:44;2.10;;;1.15;;
3667;SDS011;24099;47.102;15.440;2023-01-19T00:33:13;2.05;;;1.60;;
3667;SDS011;24099;47.102;15.440;2023-01-19T00:35:40;0.70;;;0.70;;
3667;SDS011;24099;47.102;15.440;2023-01-19T00:38:09;3.53;;;1.13;;
3667;SDS011;24099;47.102;15.440;2023-01-19T00:40:39;1.13;;;0.88;;
3667;SDS011;24099;47.102;15.440;2023-01-19T00:43:06;1.33;;;1.23;;
3667;SDS011;24099;47.102;15.440;2023-01-19T00:45:34;0.88;;;0.77;;
3667;SDS011;24099;47.102;15.440;2023-01-19T00:48:02;1.95;;;1.13;;
3667;SDS011;24099;47.102;15.440;2023-01-19T00:50:31;1.23;;;0.70;;
3667;SDS011;24099;47.102;15.440;2023-01-19T00:52:59;2.20;;;1.52;;
3667;SDS011;24099;47.102;15.440;2023-01-19T00:55:27;0.77;;;0.77;;
3667;SDS011;24099;47.102;15.440;2023-01-19T00:57:55;1.67;;;1.27;;
3667;SDS011;24099;47.102;15.440;2023-01-19T01:00:23;0.80;;;0.80;;
3667;SDS011;24099;47.102;15.440;2023-01-19T01:02:51;1.42;;;1.00;;
3667;SDS011;24099;47.102;15.440;2023-01-19T01:05:20;1.33;;;0.90;;
3667;SDS011;24099;47.102;15.440;2023-01-19T01:07:49;1.40;;;1.20;;
3667;SDS011;24099;47.102;15.440;2023-01-19T01:10:18;1.80;;;1.55;;
3667;SDS011;24099;47.102;15.440;2023-01-19T01:12:47;1.95;;;1.02;;
3667;SDS011;24099;47.102;15.440;2023-01-19T01:15:16;1.00;;;0.98;;
3667;SDS011;24099;47.102;15.440;2023-01-19T01:17:44;1.05;;;1.00;;
3667;SDS011;24099;47.102;15.440;2023-01-19T01:20:13;0.88;;;0.88;;
3667;SDS011;24099;47.102;15.440;2023-01-19T01:22:44;1.73;;;1.30;;
3667;SDS011;24099;47.102;15.440;2023-01-19T01:25:15;3.85;;;0.82;;
3667;SDS011;24099;47.102;15.440;2023-01-19T01:27:44;1.75;;;1.15;;
3667;SDS011;24099;47.102;15.440;2023-01-19T01:30:12;1.67;;;1.10;;
3667;SDS011;24099;47.102;15.440;2023-01-19T01:32:41;1.58;;;1.17;;
3667;SDS011;24099;47.102;15.440;2023-01-19T01:35:08;2.90;;;1.27;;
3667;SDS011;24099;47.102;15.440;2023-01-19T01:37:37;1.15;;;1.05;;
3667;SDS011;24099;47.102;15.440;2023-01-19T01:40:05;2.92;;;1.83;;
3667;SDS011;24099;47.102;15.440;2023-01-19T01:42:36;2.08;;;1.38;;
3667;SDS011;24099;47.102;15.440;2023-01-19T01:45:13;2.30;;;1.00;;
3667;SDS011;24099;47.102;15.440;2023-01-19T01:47:55;1.55;;;0.77;;
3667;SDS011;24099;47.102;15.440;2023-01-19T01:50:28;0.50;;;0.50;;
3667;SDS011;24099;47.102;15.440;2023-01-19T01:52:58;0.63;;;0.55;;
3667;SDS011;24099;47.102;15.440;2023-01-19T01:55:30;0.55;;;0.55;;
3667;SDS011;24099;47.102;15.440;2023-01-19T01:58:02;3.58;;;1.00;;
3667;SDS011;24099;47.102;15.440;2023-01-19T02:00:37;1.00;;;1.00;;
3667;SDS011;24099;47.102;15.440;2023-01-19T02:03:20;0.88;;;0.82;;
3667;SDS011;24099;47.102;15.440;2023-01-19T02:05:49;1.85;;;0.70;;
3667;SDS011;24099;47.102;15.440;2023-01-19T02:08:24;1.30;;;1.08;;
3667;SDS011;24099;47.102;15.440;2023-01-19T02:11:13;1.00;;;0.98;;
3667;SDS011;24099;47.102;15.440;2023-01-19T02:14:00;0.50;;;0.50;;
3667;SDS011;24099;47.102;15.440;2023-01-19T02:16:30;3.10;;;0.65;;
3667;SDS011;24099;47.102;15.440;2023-01-19T02:18:57;0.90;;;0.80;;
3667;SDS011;24099;47.102;15.440;2023-01-19T02:21:26;0.52;;;0.52;;
3667;SDS011;24099;47.102;15.440;2023-01-19T02:24:03;1.63;;;0.77;;
3667;SDS011;24099;47.102;15.440;2023-01-19T02:26:33;1.13;;;1.02;;
3667;SDS011;24099;47.102;15.440;2023-01-19T02:29:04;1.15;;;0.95;;
3667;SDS011;24099;47.102;15.440;2023-01-19T02:31:34;1.00;;;0.95;;
3667;SDS011;24099;47.102;15.440;2023-01-19T02:34:06;0.50;;;0.50;;
3667;SDS011;24099;47.102;15.440;2023-01-19T02:36:36;0.73;;;0.55;;
3667;SDS011;24099;47.102;15.440;2023-01-19T02:39:08;1.38;;;1.05;;
3667;SDS011;24099;47.102;15.440;2023-01-19T02:41:39;0.57;;;0.57;;
3667;SDS011;24099;47.102;15.440;2023-01-19T02:44:11;0.52;;;0.52;;
3667;SDS011;24099;47.102;15.440;2023-01-19T02:46:41;0.40;;;0.40;;
3667;SDS011;24099;47.102;15.440;2023-01-19T02:49:09;0.57;;;0.57;;
3667;SDS011;24099;47.102;15.440;2023-01-19T02:51:37;0.77;;;0.60;;
3667;SDS011;24099;47.102;15.440;2023-01-19T02:54:29;0.63;;;0.63;;
3667;SDS011;24099;47.102;15.440;2023-01-19T02:57:17;1.63;;;0.82;;
3667;SDS011;24099;47.102;15.440;2023-01-19T03:00:01;0.40;;;0.40;;
3667;SDS011;24099;47.102;15.440;2023-01-19T03:02:40;0.80;;;0.63;;
3667;SDS011;24099;47.102;15.440;2023-01-19T03:05:19;0.60;;;0.55;;
3667;SDS011;24099;47.102;15.440;2023-01-19T03:07:59;0.60;;;0.60;;
3667;SDS011;24099;47.102;15.440;2023-01-19T03:10:37;0.30;;;0.30;;
3667;SDS011;24099;47.102;15.440;2023-01-19T03:13:12;0.90;;;0.73;;
3667;SDS011;24099;47.102;15.440;2023-01-19T03:15:49;0.40;;;0.40;;
3667;SDS011;24099;47.102;15.440;2023-01-19T03:18:20;0.40;;;0.40;;
3667;SDS011;24099;47.102;15.440;2023-01-19T03:20:51;0.52;;;0.52;;
3667;SDS011;24099;47.102;15.440;2023-01-19T03:23:25;0.30;;;0.30;;
3667;SDS011;24099;47.102;15.440;2023-01-19T03:25:57;0.50;;;0.50;;
3667;SDS011;24099;47.102;15.440;2023-01-19T03:28:27;0.55;;;0.55;;
3667;SDS011;24099;47.102;15.440;2023-01-19T03:30:57;0.30;;;0.30;;
3667;SDS011;24099;47.102;15.440;2023-01-19T03:33:30;1.10;;;0.52;;
3667;SDS011;24099;47.102;15.440;2023-01-19T03:36:03;0.35;;;0.35;;
3667;SDS011;24099;47.102;15.440;2023-01-19T03:38:36;0.50;;;0.50;;
3667;SDS011;24099;47.102;15.440;2023-01-19T03:41:08;0.60;;;0.60;;
3667;SDS011;24099;47.102;15.440;2023-01-19T03:43:39;0.50;;;0.50;;
3667;SDS011;24099;47.102;15.440;2023-01-19T03:46:11;0.43;;;0.43;;
3667;SDS011;24099;47.102;15.440;2023-01-19T03:48:41;0.32;;;0.32;;
3667;SDS011;24099;47.102;15.440;2023-01-19T03:51:10;2.72;;;0.52;;
3667;SDS011;24099;47.102;15.440;2023-01-19T03:53:38;0.70;;;0.70;;
3667;SDS011;24099;47.102;15.440;2023-01-19T03:56:09;0.52;;;0.52;;
3667;SDS011;24099;47.102;15.440;2023-01-19T03:58:43;0.50;;;0.43;;
3667;SDS011;24099;47.102;15.440;2023-01-19T04:01:11;0.50;;;0.50;;
3667;SDS011;24099;47.102;15.440;2023-01-19T04:03:39;1.55;;;0.30;;
3667;SDS011;24099;47.102;15.440;2023-01-19T04:06:07;0.30;;;0.30;;
3667;SDS011;24099;47.102;15.440;2023-01-19T04:08:35;0.32;;;0.32;;
3667;SDS011;24099;47.102;15.440;2023-01-19T04:11:04;0.40;;;0.40;;
3667;SDS011;24099;47.102;15.440;2023-01-19T04:13:34;3.22;;;0.60;;
3667;SDS011;24099;47.102;15.440;2023-01-19T04:16:02;1.90;;;0.80;;
3667;SDS011;24099;47.102;15.440;2023-01-19T04:18:31;0.50;;;0.50;;
3667;SDS011;24099;47.102;15.440;2023-01-19T04:21:00;0.57;;;0.57;;
3667;SDS011;24099;47.102;15.440;2023-01-19T04:23:28;0.40;;;0.40;;
3667;SDS011;24099;47.102;15.440;2023-01-19T04:25:56;0.52;;;0.52;;
3667;SDS011;24099;47.102;15.440;2023-01-19T04:28:24;0.68;;;0.68;;
3667;SDS011;24099;47.102;15.440;2023-01-19T04:30:54;1.20;;;0.90;;
3667;SDS011;24099;47.102;15.440;2023-01-19T04:33:25;0.75;;;0.75;;
3667;SDS011;24099;47.102;15.440;2023-01-19T04:35:54;0.75;;;0.52;;
3667;SDS011;24099;47.102;15.440;2023-01-19T04:38:22;0.40;;;0.40;;
3667;SDS011;24099;47.102;15.440;2023-01-19T04:40:51;0.95;;;0.52;;
3667;SDS011;24099;47.102;15.440;2023-01-19T04:43:24;0.25;;;0.25;;
3667;SDS011;24099;47.102;15.440;2023-01-19T04:45:53;0.60;;;0.45;;
3667;SDS011;24099;47.102;15.440;2023-01-19T04:48:21;0.20;;;0.20;;
3667;SDS011;24099;47.102;15.440;2023-01-19T04:50:49;0.38;;;0.32;;
3667;SDS011;24099;47.102;15.440;2023-01-19T04:53:18;0.98;;;0.75;;
3667;SDS011;24099;47.102;15.440;2023-01-19T04:55:46;0.85;;;0.80;;
3667;SDS011;24099;47.102;15.440;2023-01-19T04:58:19;0.43;;;0.43;;
3667;SDS011;24099;47.102;15.440;2023-01-19T05:00:47;0.98;;;0.50;;
3667;SDS011;24099;47.102;15.440;2023-01-19T05:06:04;0.40;;;0.40;;
3667;SDS011;24099;47.102;15.440;2023-01-19T05:08:32;1.95;;;0.55;;
3667;SDS011;24099;47.102;15.440;2023-01-19T05:11:00;0.90;;;0.63;;
3667;SDS011;24099;47.102;15.440;2023-01-19T05:13:27;1.13;;;0.77;;
3667;SDS011;24099;47.102;15.440;2023-01-19T05:15:55;0.63;;;0.63;;
3667;SDS011;24099;47.102;15.440;2023-01-19T05:18:23;0.32;;;0.32;;
3667;SDS011;24099;47.102;15.440;2023-01-19T05:20:52;0.57;;;0.57;;
3667;SDS011;24099;47.102;15.440;2023-01-19T05:23:20;0.40;;;0.38;;
3667;SDS011;24099;47.102;15.440;2023-01-19T05:25:48;0.43;;;0.43;;
3667;SDS011;24099;47.102;15.440;2023-01-19T05:28:16;0.32;;;0.32;;
3667;SDS011;24099;47.102;15.440;2023-01-19T05:30:47;0.52;;;0.52;;
3667;SDS011;24099;47.102;15.440;2023-01-19T05:33:16;0.75;;;0.75;;
3667;SDS011;24099;47.102;15.440;2023-01-19T05:35:44;1.02;;;0.50;;
3667;SDS011;24099;47.102;15.440;2023-01-19T05:38:14;9.30;;;1.00;;
3667;SDS011;24099;47.102;15.440;2023-01-19T05:40:43;0.47;;;0.47;;
3667;SDS011;24099;47.102;15.440;2023-01-19T05:43:12;0.70;;;0.60;;
3667;SDS011;24099;47.102;15.440;2023-01-19T05:45:40;2.65;;;0.75;;
3667;SDS011;24099;47.102;15.440;2023-01-19T05:48:09;0.73;;;0.47;;
3667;SDS011;24099;47.102;15.440;2023-01-19T05:50:37;0.50;;;0.50;;
3667;SDS011;24099;47.102;15.440;2023-01-19T05:53:04;0.52;;;0.52;;
3667;SDS011;24099;47.102;15.440;2023-01-19T05:55:34;0.80;;;0.80;;
3667;SDS011;24099;47.102;15.440;2023-01-19T05:58:03;0.55;;;0.55;;
3667;SDS011;24099;47.102;15.440;2023-01-19T06:00:31;0.60;;;0.60;;
3667;SDS011;24099;47.102;15.440;2023-01-19T06:02:59;0.30;;;0.30;;
3667;SDS011;24099;47.102;15.440;2023-01-19T06:05:27;0.60;;;0.60;;
3667;SDS011;24099;47.102;15.440;2023-01-19T06:07:55;3.70;;;1.02;;
3667;SDS011;24099;47.102;15.440;2023-01-19T06:10:23;0.70;;;0.70;;
3667;SDS011;24099;47.102;15.440;2023-01-19T06:12:53;1.25;;;0.50;;
3667;SDS011;24099;47.102;15.440;2023-01-19T06:15:21;0.60;;;0.60;;
3667;SDS011;24099;47.102;15.440;2023-01-19T06:17:49;0.50;;;0.50;;
3667;SDS011;24099;47.102;15.440;2023-01-19T06:20:19;1.20;;;1.08;;
3667;SDS011;24099;47.102;15.440;2023-01-19T06:22:48;0.30;;;0.30;;
3667;SDS011;24099;47.102;15.440;2023-01-19T06:25:16;0.70;;;0.52;;
3667;SDS011;24099;47.102;15.440;2023-01-19T06:27:55;0.63;;;0.63;;
3667;SDS011;24099;47.102;15.440;2023-01-19T06:30:26;0.50;;;0.50;;
3667;SDS011;24099;47.102;15.440;2023-01-19T06:32:55;0.73;;;0.73;;
3667;SDS011;24099;47.102;15.440;2023-01-19T06:35:24;0.60;;;0.60;;
3667;SDS011;24099;47.102;15.440;2023-01-19T06:37:53;1.40;;;0.75;;
3667;SDS011;24099;47.102;15.440;2023-01-19T06:40:20;0.82;;;0.73;;
3667;SDS011;24099;47.102;15.440;2023-01-19T06:42:48;0.70;;;0.70;;
3667;SDS011;24099;47.102;15.440;2023-01-19T06:45:30;0.30;;;0.30;;
3667;SDS011;24099;47.102;15.440;2023-01-19T06:47:59;0.70;;;0.70;;
3667;SDS011;24099;47.102;15.440;2023-01-19T06:50:28;0.50;;;0.50;;
3667;SDS011;24099;47.102;15.440;2023-01-19T06:52:58;0.70;;;0.70;;
3667;SDS011;24099;47.102;15.440;2023-01-19T06:55:26;0.40;;;0.40;;
3667;SDS011;24099;47.102;15.440;2023-01-19T06:57:56;0.52;;;0.52;;
3667;SDS011;24099;47.102;15.440;2023-01-19T07:00:25;0.60;;;0.60;;
3667;SDS011;24099;47.102;15.440;2023-01-19T07:02:56;0.30;;;0.30;;
3667;SDS011;24099;47.102;15.440;2023-01-19T07:05:25;0.52;;;0.52;;
3667;SDS011;24099;47.102;15.440;2023-01-19T07:07:54;0.70;;;0.70;;
3667;SDS011;24099;47.102;15.440;2023-01-19T07:10:22;0.35;;;0.35;;
3667;SDS011;24099;47.102;15.440;2023-01-19T07:12:51;0.60;;;0.60;;
3667;SDS011;24099;47.102;15.440;2023-01-19T07:15:19;0.70;;;0.70;;
3667;SDS011;24099;47.102;15.440;2023-01-19T07:17:47;0.70;;;0.70;;
3667;SDS011;24099;47.102;15.440;2023-01-19T07:20:17;0.40;;;0.40;;
3667;SDS011;24099;47.102;15.440;2023-01-19T07:22:44;0.60;;;0.60;;
3667;SDS011;24099;47.102;15.440;2023-01-19T07:25:14;1.08;;;0.77;;
3667;SDS011;24099;47.102;15.440;2023-01-19T07:27:47;0.68;;;0.68;;
3667;SDS011;24099;47.102;15.440;2023-01-19T07:30:17;0.60;;;0.60;;
3667;SDS011;24099;47.102;15.440;2023-01-19T07:32:45;0.30;;;0.30;;
3667;SDS011;24099;47.102;15.440;2023-01-19T07:35:13;0.47;;;0.47;;
3667;SDS011;24099;47.102;15.440;2023-01-19T07:37:43;0.43;;;0.43;;
3667;SDS011;24099;47.102;15.440;2023-01-19T07:40:11;0.50;;;0.50;;
3667;SDS011;24099;47.102;15.440;2023-01-19T07:42:44;0.90;;;0.70;;
3667;SDS011;24099;47.102;15.440;2023-01-19T07:45:13;0.35;;;0.35;;
3667;SDS011;24099;47.102;15.440;2023-01-19T07:47:41;1.67;;;0.68;;
3667;SDS011;24099;47.102;15.440;2023-01-19T07:50:10;0.63;;;0.63;;
3667;SDS011;24099;47.102;15.440;2023-01-19T07:52:40;0.40;;;0.40;;
3667;SDS011;24099;47.102;15.440;2023-01-19T07:55:10;0.75;;;0.50;;
3667;SDS011;24099;47.102;15.440;2023-01-19T07:57:39;0.30;;;0.30;;
3667;SDS011;24099;47.102;15.440;2023-01-19T08:00:07;0.55;;;0.55;;
3667;SDS011;24099;47.102;15.440;2023-01-19T08:02:39;0.50;;;0.50;;
3667;SDS011;24099;47.102;15.440;2023-01-19T08:05:07;0.20;;;0.20;;
3667;SDS011;24099;47.102;15.440;2023-01-19T08:07:36;1.17;;;0.60;;
3667;SDS011;24099;47.102;15.440;2023-01-19T08:10:07;0.22;;;0.22;;
3667;SDS011;24099;47.102;15.440;2023-01-19T08:12:36;0.55;;;0.55;;
3667;SDS011;24099;47.102;15.440;2023-01-19T08:15:08;0.65;;;0.50;;
3667;SDS011;24099;47.102;15.440;2023-01-19T08:17:38;0.70;;;0.68;;
3667;SDS011;24099;47.102;15.440;2023-01-19T08:20:06;0.63;;;0.63;;
3667;SDS011;24099;47.102;15.440;2023-01-19T08:22:36;0.30;;;0.30;;
3667;SDS011;24099;47.102;15.440;2023-01-19T08:25:04;0.52;;;0.52;;
3667;SDS011;24099;47.102;15.440;2023-01-19T08:27:35;0.28;;;0.28;;
3667;SDS011;24099;47.102;15.440;2023-01-19T08:30:04;0.20;;;0.20;;
3667;SDS011;24099;47.102;15.440;2023-01-19T08:32:32;0.43;;;0.43;;
3667;SDS011;24099;47.102;15.440;2023-01-19T08:35:02;0.52;;;0.50;;
3667;SDS011;24099;47.102;15.440;2023-01-19T08:37:31;0.30;;;0.30;;
3667;SDS011;24099;47.102;15.440;2023-01-19T08:39:59;0.60;;;0.60;;
3667;SDS011;24099;47.102;15.440;2023-01-19T08:42:29;0.13;;;0.13;;
3667;SDS011;24099;47.102;15.440;2023-01-19T08:44:58;0.30;;;0.30;;
3667;SDS011;24099;47.102;15.440;2023-01-19T08:47:26;0.32;;;0.32;;
3667;SDS011;24099;47.102;15.440;2023-01-19T08:49:56;0.30;;;0.30;;
3667;SDS011;24099;47.102;15.440;2023-01-19T08:52:24;0.40;;;0.40;;
3667;SDS011;24099;47.102;15.440;2023-01-19T08:54:54;0.32;;;0.32;;
3667;SDS011;24099;47.102;15.440;2023-01-19T08:57:22;0.60;;;0.60;;
3667;SDS011;24099;47.102;15.440;2023-01-19T08:59:51;0.55;;;0.50;;
3667;SDS011;24099;47.102;15.440;2023-01-19T09:02:19;0.45;;;0.45;;
3667;SDS011;24099;47.102;15.440;2023-01-19T09:04:48;1.20;;;0.52;;
3667;SDS011;24099;47.102;15.440;2023-01-19T09:07:17;0.50;;;0.50;;
3667;SDS011;24099;47.102;15.440;2023-01-19T09:09:45;0.30;;;0.30;;
3667;SDS011;24099;47.102;15.440;2023-01-19T09:12:14;0.55;;;0.55;;
3667;SDS011;24099;47.102;15.440;2023-01-19T09:14:42;0.68;;;0.68;;
3667;SDS011;24099;47.102;15.440;2023-01-19T09:17:11;0.40;;;0.40;;
3667;SDS011;24099;47.102;15.440;2023-01-19T09:19:39;0.35;;;0.35;;
3667;SDS011;24099;47.102;15.440;2023-01-19T09:22:06;0.30;;;0.30;;
3667;SDS011;24099;47.102;15.440;2023-01-19T09:24:35;0.38;;;0.38;;
3667;SDS011;24099;47.102;15.440;2023-01-19T09:27:03;0.20;;;0.20;;
3667;SDS011;24099;47.102;15.440;2023-01-19T09:29:33;0.32;;;0.32;;
3667;SDS011;24099;47.102;15.440;2023-01-19T09:32:01;0.30;;;0.30;;
3667;SDS011;24099;47.102;15.440;2023-01-19T09:34:32;0.20;;;0.20;;
3667;SDS011;24099;47.102;15.440;2023-01-19T09:37:00;0.40;;;0.40;;
3667;SDS011;24099;47.102;15.440;2023-01-19T09:39:28;0.45;;;0.45;;
3667;SDS011;24099;47.102;15.440;2023-01-19T09:42:00;0.32;;;0.32;;
3667;SDS011;24099;47.102;15.440;2023-01-19T09:44:47;0.55;;;0.40;;
3667;SDS011;24099;47.102;15.440;2023-01-19T09:47:19;0.40;;;0.40;;
3667;SDS011;24099;47.102;15.440;2023-01-19T09:49:52;0.45;;;0.45;;
3667;SDS011;24099;47.102;15.440;2023-01-19T09:52:24;0.40;;;0.40;;
3667;SDS011;24099;47.102;15.440;2023-01-19T09:54:57;0.32;;;0.32;;
3667;SDS011;24099;47.102;15.440;2023-01-19T09:57:27;0.20;;;0.20;;
3667;SDS011;24099;47.102;15.440;2023-01-19T09:59:59;0.50;;;0.50;;
3667;SDS011;24099;47.102;15.440;2023-01-19T10:02:39;0.32;;;0.32;;
3667;SDS011;24099;47.102;15.440;2023-01-19T10:05:20;0.60;;;0.60;;
3667;SDS011;24099;47.102;15.440;2023-01-19T10:08:02;0.17;;;0.17;;
3667;SDS011;24099;47.102;15.440;2023-01-19T10:13:24;0.60;;;0.60;;
3667;SDS011;24099;47.102;15.440;2023-01-19T10:16:08;0.60;;;0.50;;
3667;SDS011;24099;47.102;15.440;2023-01-19T10:18:45;0.50;;;0.50;;
3667;SDS011;24099;47.102;15.440;2023-01-19T10:21:18;0.52;;;0.52;;
3667;SDS011;24099;47.102;15.440;2023-01-19T10:23:50;0.30;;;0.30;;
3667;SDS011;24099;47.102;15.440;2023-01-19T10:26:22;0.40;;;0.40;;
3667;SDS011;24099;47.102;15.440;2023-01-19T10:28:53;0.40;;;0.40;;
3667;SDS011;24099;47.102;15.440;2023-01-19T10:31:25;0.80;;;0.38;;
3667;SDS011;24099;47.102;15.440;2023-01-19T10:33:53;0.40;;;0.40;;
3667;SDS011;24099;47.102;15.440;2023-01-19T10:36:24;0.50;;;0.50;;
3667;SDS011;24099;47.102;15.440;2023-01-19T10:38:59;0.50;;;0.43;;
3667;SDS011;24099;47.102;15.440;2023-01-19T10:41:30;0.40;;;0.40;;
3667;SDS011;24099;47.102;15.440;2023-01-19T10:44:07;0.30;;;0.30;;
3667;SDS011;24099;47.102;15.440;2023-01-19T10:46:37;0.55;;;0.55;;
3667;SDS011;24099;47.102;15.440;2023-01-19T10:49:20;0.40;;;0.40;;
3667;SDS011;24099;47.102;15.440;2023-01-19T10:51:52;0.32;;;0.28;;
3667;SDS011;24099;47.102;15.440;2023-01-19T10:54:22;0.30;;;0.30;;
3667;SDS011;24099;47.102;15.440;2023-01-19T10:56:52;0.43;;;0.43;;
3667;SDS011;24099;47.102;15.440;2023-01-19T10:59:31;0.38;;;0.38;;
3667;SDS011;24099;47.102;15.440;2023-01-19T11:02:02;0.60;;;0.60;;
3667;SDS011;24099;47.102;15.440;2023-01-19T11:04:45;0.30;;;0.30;;
3667;SDS011;24099;47.102;15.440;2023-01-19T11:07:17;0.38;;;0.38;;
3667;SDS011;24099;47.102;15.440;2023-01-19T11:09:49;0.40;;;0.40;;
3667;SDS011;24099;47.102;15.440;2023-01-19T11:12:38;0.40;;;0.40;;
3667;SDS011;24099;47.102;15.440;2023-01-19T11:15:14;0.32;;;0.32;;
3667;SDS011;24099;47.102;15.440;2023-01-19T11:17:47;0.40;;;0.30;;
3667;SDS011;24099;47.102;15.440;2023-01-19T11:20:17;0.40;;;0.40;;
3667;SDS011;24099;47.102;15.440;2023-01-19T11:22:49;0.40;;;0.40;;
3667;SDS011;24099;47.102;15.440;2023-01-19T11:25:33;0.63;;;0.55;;
3667;SDS011;24099;47.102;15.440;2023-01-19T11:28:02;0.52;;;0.52;;
3667;SDS011;24099;47.102;15.440;2023-01-19T11:30:37;0.35;;;0.35;;
3667;SDS011;24099;47.102;15.440;2023-01-19T11:33:22;0.28;;;0.28;;
3667;SDS011;24099;47.102;15.440;2023-01-19T11:36:00;0.20;;;0.20;;
3667;SDS011;24099;47.102;15.440;2023-01-19T11:38:44;0.30;;;0.30;;
3667;SDS011;24099;47.102;15.440;2023-01-19T11:41:15;0.60;;;0.60;;
3667;SDS011;24099;47.102;15.440;2023-01-19T11:43:46;2.08;;;0.40;;
3667;SDS011;24099;47.102;15.440;2023-01-19T11:46:17;0.45;;;0.45;;
3667;SDS011;24099;47.102;15.440;2023-01-19T11:48:51;0.32;;;0.32;;
3667;SDS011;24099;47.102;15.440;2023-01-19T11:51:29;0.30;;;0.30;;
3667;SDS011;24099;47.102;15.440;2023-01-19T11:54:04;0.22;;;0.22;;
3667;SDS011;24099;47.102;15.440;2023-01-19T11:56:43;1.00;;;0.40;;
3667;SDS011;24099;47.102;15.440;2023-01-19T11:59:13;0.30;;;0.30;;
3667;SDS011;24099;47.102;15.440;2023-01-19T12:01:43;0.68;;;0.68;;
3667;SDS011;24099;47.102;15.440;2023-01-19T12:04:16;2.97;;;0.85;;
3667;SDS011;24099;47.102;15.440;2023-01-19T12:06:52;0.43;;;0.43;;
3667;SDS011;24099;47.102;15.440;2023-01-19T12:09:27;0.32;;;0.32;;
3667;SDS011;24099;47.102;15.440;2023-01-19T12:12:01;0.32;;;0.32;;
3667;SDS011;24099;47.102;15.440;2023-01-19T12:14:33;0.30;;;0.30;;
3667;SDS011;24099;47.102;15.440;2023-01-19T12:17:21;0.30;;;0.30;;
3667;SDS011;24099;47.102;15.440;2023-01-19T12:19:53;0.40;;;0.40;;
3667;SDS011;24099;47.102;15.440;2023-01-19T12:22:29;0.63;;;0.57;;
3667;SDS011;24099;47.102;15.440;2023-01-19T12:27:41;0.45;;;0.45;;
3667;SDS011;24099;47.102;15.440;2023-01-19T12:30:14;0.50;;;0.50;;
3667;SDS011;24099;47.102;15.440;2023-01-19T12:32:51;3.95;;;0.90;;
3667;SDS011;24099;47.102;15.440;2023-01-19T12:35:55;0.73;;;0.47;;
3667;SDS011;24099;47.102;15.440;2023-01-19T12:38:39;1.65;;;0.47;;
3667;SDS011;24099;47.102;15.440;2023-01-19T12:41:18;0.28;;;0.28;;
3667;SDS011;24099;47.102;15.440;2023-01-19T12:44:08;0.38;;;0.38;;
3667;SDS011;24099;47.102;15.440;2023-01-19T12:46:44;0.50;;;0.50;;
3667;SDS011;24099;47.102;15.440;2023-01-19T12:49:25;0.40;;;0.40;;
3667;SDS011;24099;47.102;15.440;2023-01-19T12:52:09;0.20;;;0.20;;
3667;SDS011;24099;47.102;15.440;2023-01-19T12:54:49;0.43;;;0.43;;
3667;SDS011;24099;47.102;15.440;2023-01-19T12:57:23;0.30;;;0.30;;
3667;SDS011;24099;47.102;15.440;2023-01-19T12:59:55;0.60;;;0.60;;
3667;SDS011;24099;47.102;15.440;2023-01-19T13:05:21;0.30;;;0.30;;
3667;SDS011;24099;47.102;15.440;2023-01-19T13:08:17;0.40;;;0.40;;
3667;SDS011;24099;47.102;15.440;2023-01-19T13:13:42;0.20;;;0.20;;
3667;SDS011;24099;47.102;15.440;2023-01-19T13:19:34;0.38;;;0.38;;
3667;SDS011;24099;47.102;15.440;2023-01-19T13:25:20;0.43;;;0.43;;
3667;SDS011;24099;47.102;15.440;2023-01-19T13:28:07;0.20;;;0.20;;
3667;SDS011;24099;47.102;15.440;2023-01-19T13:30:48;0.30;;;0.30;;
3667;SDS011;24099;47.102;15.440;2023-01-19T13:33:21;0.30;;;0.30;;
3667;SDS011;24099;47.102;15.440;2023-01-19T13:35:51;0.30;;;0.30;;
3667;SDS011;24099;47.102;15.440;2023-01-19T13:38:21;0.20;;;0.20;;
3667;SDS011;24099;47.102;15.440;2023-01-19T13:40:52;0.30;;;0.30;;
3667;SDS011;24099;47.102;15.440;2023-01-19T13:43:23;0.47;;;0.38;;
3667;SDS011;24099;47.102;15.440;2023-01-19T13:45:55;1.10;;;0.30;;
3667;SDS011;24099;47.102;15.440;2023-01-19T13:48:27;0.50;;;0.50;;
3667;SDS011;24099;47.102;15.440;2023-01-19T13:50:59;0.80;;;0.20;;
3667;SDS011;24099;47.102;15.440;2023-01-19T13:53:29;0.43;;;0.43;;
3667;SDS011;24099;47.102;15.440;2023-01-19T13:56:05;0.45;;;0.45;;
3667;SDS011;24099;47.102;15.440;2023-01-19T13:58:34;0.25;;;0.25;;
3667;SDS011;24099;47.102;15.440;2023-01-19T14:01:04;0.30;;;0.30;;
3667;SDS011;24099;47.102;15.440;2023-01-19T14:03:32;0.77;;;0.45;;
3667;SDS011;24099;47.102;15.440;2023-01-19T14:06:00;0.68;;;0.30;;
3667;SDS011;24099;47.102;15.440;2023-01-19T14:08:28;0.30;;;0.30;;
3667;SDS011;24099;47.102;15.440;2023-01-19T14:10:59;0.40;;;0.40;;
3667;SDS011;24099;47.102;15.440;2023-01-19T14:13:28;0.40;;;0.40;;
3667;SDS011;24099;47.102;15.440;2023-01-19T14:15:57;0.32;;;0.32;;
3667;SDS011;24099;47.102;15.440;2023-01-19T14:18:32;0.40;;;0.40;;
3667;SDS011;24099;47.102;15.440;2023-01-19T14:21:01;0.50;;;0.50;;
3667;SDS011;24099;47.102;15.440;2023-01-19T14:23:39;0.40;;;0.30;;
3667;SDS011;24099;47.102;15.440;2023-01-19T14:29:11;0.28;;;0.28;;
3667;SDS011;24099;47.102;15.440;2023-01-19T14:31:43;0.30;;;0.30;;
3667;SDS011;24099;47.102;15.440;2023-01-19T14:34:29;0.55;;;0.55;;
3667;SDS011;24099;47.102;15.440;2023-01-19T14:37:01;0.30;;;0.30;;
3667;SDS011;24099;47.102;15.440;2023-01-19T14:39:30;1.00;;;0.52;;
3667;SDS011;24099;47.102;15.440;2023-01-19T14:42:02;0.70;;;0.70;;
3667;SDS011;24099;47.102;15.440;2023-01-19T14:44:34;0.40;;;0.40;;
3667;SDS011;24099;47.102;15.440;2023-01-19T14:47:04;0.32;;;0.32;;
3667;SDS011;24099;47.102;15.440;2023-01-19T14:49:46;0.30;;;0.30;;
3667;SDS011;24099;47.102;15.440;2023-01-19T14:52:19;0.55;;;0.40;;
3667;SDS011;24099;47.102;15.440;2023-01-19T14:54:50;0.43;;;0.43;;
3667;SDS011;24099;47.102;15.440;2023-01-19T14:57:19;1.08;;;0.55;;
3667;SDS011;24099;47.102;15.440;2023-01-19T14:59:47;0.77;;;0.40;;
3667;SDS011;24099;47.102;15.440;2023-01-19T15:02:16;0.30;;;0.30;;
3667;SDS011;24099;47.102;15.440;2023-01-19T15:04:44;0.40;;;0.40;;
3667;SDS011;24099;47.102;15.440;2023-01-19T15:07:16;0.40;;;0.40;;
3667;SDS011;24099;47.102;15.440;2023-01-19T15:09:44;0.88;;;0.60;;
3667;SDS011;24099;47.102;15.440;2023-01-19T15:12:13;1.88;;;0.93;;
3667;SDS011;24099;47.102;15.440;2023-01-19T15:14:44;2.20;;;1.15;;
3667;SDS011;24099;47.102;15.440;2023-01-19T15:17:14;1.13;;;1.02;;
3667;SDS011;24099;47.102;15.440;2023-01-19T15:22:19;0.50;;;0.50;;
3667;SDS011;24099;47.102;15.440;2023-01-19T15:24:47;0.90;;;0.68;;
3667;SDS011;24099;47.102;15.440;2023-01-19T15:27:16;0.98;;;0.77;;
3667;SDS011;24099;47.102;15.440;2023-01-19T15:29:52;0.55;;;0.43;;
3667;SDS011;24099;47.102;15.440;2023-01-19T15:32:20;0.77;;;0.60;;
3667;SDS011;24099;47.102;15.440;2023-01-19T15:34:47;0.57;;;0.57;;
3667;SDS011;24099;47.102;15.440;2023-01-19T15:37:16;0.45;;;0.43;;
3667;SDS011;24099;47.102;15.440;2023-01-19T15:39:47;0.52;;;0.47;;